sensor_id;sensor_type;location;lat;lon;timestamp;P1;durP1;ratioP1;P2;durP2;ratioP2
17494;SDS011;8864;51.970;4.614;2023-06-24T00:01:44;2.38;;;1.60;;
17494;SDS011;8864;51.970;4.614;2023-06-24T00:04:12;3.15;;;1.60;;
17494;SDS011;8864;51.970;4.614;2023-06-24T00:06:40;4.80;;;1.70;;
17494;SDS011;8864;51.970;4.614;2023-06-24T00:09:07;2.53;;;1.48;;
17494;SDS011;8864;51.970;4.614;2023-06-24T00:11:36;9.02;;;1.70;;
17494;SDS011;8864;51.970;4.614;2023-06-24T00:14:03;3.47;;;1.60;;
17494;SDS011;8864;51.970;4.614;2023-06-24T00:16:31;3.88;;;2.25;;
17494;SDS011;8864;51.970;4.614;2023-06-24T00:18:58;3.63;;;1.55;;
17494;SDS011;8864;51.970;4.614;2023-06-24T00:21:27;3.03;;;1.65;;
17494;SDS011;8864;51.970;4.614;2023-06-24T00:23:56;2.83;;;1.70;;
17494;SDS011;8864;51.970;4.614;2023-06-24T00:26:27;3.80;;;1.52;;
17494;SDS011;8864;51.970;4.614;2023-06-24T00:28:55;3.33;;;1.75;;
17494;SDS011;8864;51.970;4.614;2023-06-24T00:31:22;3.00;;;1.80;;
17494;SDS011;8864;51.970;4.614;2023-06-24T00:33:49;4.85;;;2.05;;
17494;SDS011;8864;51.970;4.614;2023-06-24T00:36:17;3.00;;;1.85;;
17494;SDS011;8864;51.970;4.614;2023-06-24T00:38:44;3.70;;;2.03;;
17494;SDS011;8864;51.970;4.614;2023-06-24T00:41:11;3.25;;;1.60;;
17494;SDS011;8864;51.970;4.614;2023-06-24T00:43:38;4.47;;;2.00;;
17494;SDS011;8864;51.970;4.614;2023-06-24T00:46:07;2.25;;;1.60;;
17494;SDS011;8864;51.970;4.614;2023-06-24T00:48:34;3.35;;;1.70;;
17494;SDS011;8864;51.970;4.614;2023-06-24T00:51:01;4.00;;;1.95;;
17494;SDS011;8864;51.970;4.614;2023-06-24T00:53:28;3.83;;;1.90;;
17494;SDS011;8864;51.970;4.614;2023-06-24T00:55:55;3.92;;;1.83;;
17494;SDS011;8864;51.970;4.614;2023-06-24T00:58:27;4.47;;;1.90;;
17494;SDS011;8864;51.970;4.614;2023-06-24T01:00:55;2.65;;;1.70;;
17494;SDS011;8864;51.970;4.614;2023-06-24T01:03:25;3.20;;;1.70;;
17494;SDS011;8864;51.970;4.614;2023-06-24T01:05:54;4.43;;;2.25;;
17494;SDS011;8864;51.970;4.614;2023-06-24T01:08:21;3.50;;;2.20;;
17494;SDS011;8864;51.970;4.614;2023-06-24T01:10:49;3.78;;;1.98;;
17494;SDS011;8864;51.970;4.614;2023-06-24T01:13:16;4.53;;;2.03;;
17494;SDS011;8864;51.970;4.614;2023-06-24T01:15:44;4.18;;;1.92;;
17494;SDS011;8864;51.970;4.614;2023-06-24T01:18:13;2.78;;;1.65;;
17494;SDS011;8864;51.970;4.614;2023-06-24T01:20:54;3.63;;;1.83;;
17494;SDS011;8864;51.970;4.614;2023-06-24T01:23:34;4.57;;;1.80;;
17494;SDS011;8864;51.970;4.614;2023-06-24T01:26:31;5.15;;;2.00;;
17494;SDS011;8864;51.970;4.614;2023-06-24T01:29:14;2.38;;;1.80;;
17494;SDS011;8864;51.970;4.614;2023-06-24T01:31:58;3.15;;;1.65;;
17494;SDS011;8864;51.970;4.614;2023-06-24T01:34:32;3.00;;;1.63;;
17494;SDS011;8864;51.970;4.614;2023-06-24T01:37:04;3.80;;;1.77;;
17494;SDS011;8864;51.970;4.614;2023-06-24T01:39:38;3.08;;;1.60;;
17494;SDS011;8864;51.970;4.614;2023-06-24T01:42:10;2.58;;;1.80;;
17494;SDS011;8864;51.970;4.614;2023-06-24T01:44:40;3.88;;;1.75;;
17494;SDS011;8864;51.970;4.614;2023-06-24T01:47:11;4.38;;;1.90;;
17494;SDS011;8864;51.970;4.614;2023-06-24T01:49:41;3.38;;;1.70;;
17494;SDS011;8864;51.970;4.614;2023-06-24T01:52:11;4.30;;;2.00;;
17494;SDS011;8864;51.970;4.614;2023-06-24T01:54:39;3.40;;;1.90;;
17494;SDS011;8864;51.970;4.614;2023-06-24T01:57:08;4.60;;;2.15;;
17494;SDS011;8864;51.970;4.614;2023-06-24T01:59:36;6.07;;;2.10;;
17494;SDS011;8864;51.970;4.614;2023-06-24T02:02:06;4.28;;;1.90;;
17494;SDS011;8864;51.970;4.614;2023-06-24T02:04:35;3.58;;;2.15;;
17494;SDS011;8864;51.970;4.614;2023-06-24T02:07:04;3.80;;;2.00;;
17494;SDS011;8864;51.970;4.614;2023-06-24T02:09:34;5.43;;;1.92;;
17494;SDS011;8864;51.970;4.614;2023-06-24T02:12:03;3.97;;;1.80;;
17494;SDS011;8864;51.970;4.614;2023-06-24T02:14:31;3.90;;;1.90;;
17494;SDS011;8864;51.970;4.614;2023-06-24T02:17:02;3.60;;;2.00;;
17494;SDS011;8864;51.970;4.614;2023-06-24T02:19:31;3.40;;;2.03;;
17494;SDS011;8864;51.970;4.614;2023-06-24T02:22:00;3.22;;;1.83;;
17494;SDS011;8864;51.970;4.614;2023-06-24T02:24:29;2.78;;;1.83;;
17494;SDS011;8864;51.970;4.614;2023-06-24T02:26:56;5.07;;;1.90;;
17494;SDS011;8864;51.970;4.614;2023-06-24T02:29:25;3.88;;;1.95;;
17494;SDS011;8864;51.970;4.614;2023-06-24T02:31:53;4.45;;;2.10;;
17494;SDS011;8864;51.970;4.614;2023-06-24T02:34:22;4.50;;;1.73;;
17494;SDS011;8864;51.970;4.614;2023-06-24T02:36:49;4.93;;;2.10;;
17494;SDS011;8864;51.970;4.614;2023-06-24T02:39:17;3.67;;;2.20;;
17494;SDS011;8864;51.970;4.614;2023-06-24T02:41:44;5.75;;;1.95;;
17494;SDS011;8864;51.970;4.614;2023-06-24T02:44:12;3.85;;;1.92;;
17494;SDS011;8864;51.970;4.614;2023-06-24T02:46:40;3.58;;;1.80;;
17494;SDS011;8864;51.970;4.614;2023-06-24T02:49:07;5.20;;;2.10;;
17494;SDS011;8864;51.970;4.614;2023-06-24T02:51:36;6.65;;;1.90;;
17494;SDS011;8864;51.970;4.614;2023-06-24T02:54:04;4.15;;;1.92;;
17494;SDS011;8864;51.970;4.614;2023-06-24T02:56:33;3.28;;;2.20;;
17494;SDS011;8864;51.970;4.614;2023-06-24T02:59:01;3.28;;;1.92;;
17494;SDS011;8864;51.970;4.614;2023-06-24T03:01:28;3.83;;;2.15;;
17494;SDS011;8864;51.970;4.614;2023-06-24T03:03:56;7.28;;;1.85;;
17494;SDS011;8864;51.970;4.614;2023-06-24T03:06:23;3.40;;;1.83;;
17494;SDS011;8864;51.970;4.614;2023-06-24T03:08:51;3.30;;;1.70;;
17494;SDS011;8864;51.970;4.614;2023-06-24T03:11:19;7.13;;;2.20;;
17494;SDS011;8864;51.970;4.614;2023-06-24T03:13:47;4.85;;;1.90;;
17494;SDS011;8864;51.970;4.614;2023-06-24T03:16:14;3.22;;;1.95;;
17494;SDS011;8864;51.970;4.614;2023-06-24T03:18:41;3.03;;;1.90;;
17494;SDS011;8864;51.970;4.614;2023-06-24T03:21:08;4.95;;;1.92;;
17494;SDS011;8864;51.970;4.614;2023-06-24T03:23:35;3.83;;;2.15;;
17494;SDS011;8864;51.970;4.614;2023-06-24T03:26:02;2.97;;;2.20;;
17494;SDS011;8864;51.970;4.614;2023-06-24T03:28:30;4.03;;;1.98;;
17494;SDS011;8864;51.970;4.614;2023-06-24T03:30:59;4.18;;;1.90;;
17494;SDS011;8864;51.970;4.614;2023-06-24T03:33:26;4.35;;;2.15;;
17494;SDS011;8864;51.970;4.614;2023-06-24T03:35:53;2.80;;;1.70;;
17494;SDS011;8864;51.970;4.614;2023-06-24T03:38:20;2.97;;;2.15;;
17494;SDS011;8864;51.970;4.614;2023-06-24T03:40:47;3.20;;;1.90;;
17494;SDS011;8864;51.970;4.614;2023-06-24T03:43:15;3.20;;;1.95;;
17494;SDS011;8864;51.970;4.614;2023-06-24T03:45:42;3.90;;;1.98;;
17494;SDS011;8864;51.970;4.614;2023-06-24T03:48:10;3.63;;;1.90;;
17494;SDS011;8864;51.970;4.614;2023-06-24T03:50:37;3.45;;;2.10;;
17494;SDS011;8864;51.970;4.614;2023-06-24T03:53:05;2.65;;;1.80;;
17494;SDS011;8864;51.970;4.614;2023-06-24T03:55:32;5.28;;;1.90;;
17494;SDS011;8864;51.970;4.614;2023-06-24T03:57:59;4.78;;;2.00;;
17494;SDS011;8864;51.970;4.614;2023-06-24T04:00:26;3.67;;;2.10;;
17494;SDS011;8864;51.970;4.614;2023-06-24T04:02:53;4.43;;;2.20;;
17494;SDS011;8864;51.970;4.614;2023-06-24T04:05:22;6.40;;;2.38;;
17494;SDS011;8864;51.970;4.614;2023-06-24T04:07:50;3.72;;;1.80;;
17494;SDS011;8864;51.970;4.614;2023-06-24T04:10:18;4.43;;;1.88;;
17494;SDS011;8864;51.970;4.614;2023-06-24T04:12:45;4.50;;;2.00;;
17494;SDS011;8864;51.970;4.614;2023-06-24T04:15:12;6.10;;;2.13;;
17494;SDS011;8864;51.970;4.614;2023-06-24T04:17:39;3.50;;;2.00;;
17494;SDS011;8864;51.970;4.614;2023-06-24T04:20:07;5.00;;;2.25;;
17494;SDS011;8864;51.970;4.614;2023-06-24T04:22:36;16.08;;;3.33;;
17494;SDS011;8864;51.970;4.614;2023-06-24T04:25:04;36.78;;;6.80;;
17494;SDS011;8864;51.970;4.614;2023-06-24T04:27:32;19.20;;;5.35;;
17494;SDS011;8864;51.970;4.614;2023-06-24T04:29:59;17.13;;;4.15;;
17494;SDS011;8864;51.970;4.614;2023-06-24T04:32:26;11.30;;;3.35;;
17494;SDS011;8864;51.970;4.614;2023-06-24T04:34:53;10.05;;;3.47;;
17494;SDS011;8864;51.970;4.614;2023-06-24T04:37:20;8.63;;;3.15;;
17494;SDS011;8864;51.970;4.614;2023-06-24T04:39:48;6.65;;;3.03;;
17494;SDS011;8864;51.970;4.614;2023-06-24T04:42:16;6.70;;;2.45;;
17494;SDS011;8864;51.970;4.614;2023-06-24T04:44:42;5.32;;;2.40;;
17494;SDS011;8864;51.970;4.614;2023-06-24T04:47:09;7.05;;;2.60;;
17494;SDS011;8864;51.970;4.614;2023-06-24T04:49:38;5.15;;;2.40;;
17494;SDS011;8864;51.970;4.614;2023-06-24T04:52:06;6.90;;;2.28;;
17494;SDS011;8864;51.970;4.614;2023-06-24T04:54:33;6.35;;;2.33;;
17494;SDS011;8864;51.970;4.614;2023-06-24T04:57:01;4.55;;;2.33;;
17494;SDS011;8864;51.970;4.614;2023-06-24T04:59:29;3.38;;;2.35;;
17494;SDS011;8864;51.970;4.614;2023-06-24T05:01:55;3.50;;;2.30;;
17494;SDS011;8864;51.970;4.614;2023-06-24T05:04:22;3.63;;;2.10;;
17494;SDS011;8864;51.970;4.614;2023-06-24T05:06:49;4.25;;;2.40;;
17494;SDS011;8864;51.970;4.614;2023-06-24T05:09:17;6.07;;;2.60;;
17494;SDS011;8864;51.970;4.614;2023-06-24T05:11:44;5.55;;;2.65;;
17494;SDS011;8864;51.970;4.614;2023-06-24T05:14:13;5.57;;;2.90;;
17494;SDS011;8864;51.970;4.614;2023-06-24T05:16:40;5.22;;;2.33;;
17494;SDS011;8864;51.970;4.614;2023-06-24T05:19:07;3.50;;;2.13;;
17494;SDS011;8864;51.970;4.614;2023-06-24T05:21:34;5.75;;;2.53;;
17494;SDS011;8864;51.970;4.614;2023-06-24T05:24:01;5.88;;;2.47;;
17494;SDS011;8864;51.970;4.614;2023-06-24T05:26:27;4.70;;;2.60;;
17494;SDS011;8864;51.970;4.614;2023-06-24T05:28:54;4.70;;;2.55;;
17494;SDS011;8864;51.970;4.614;2023-06-24T05:31:22;5.45;;;2.60;;
17494;SDS011;8864;51.970;4.614;2023-06-24T05:33:49;4.78;;;2.58;;
17494;SDS011;8864;51.970;4.614;2023-06-24T05:36:16;3.97;;;2.40;;
17494;SDS011;8864;51.970;4.614;2023-06-24T05:38:43;5.82;;;2.83;;
17494;SDS011;8864;51.970;4.614;2023-06-24T05:41:11;4.43;;;2.40;;
17494;SDS011;8864;51.970;4.614;2023-06-24T05:43:37;5.43;;;2.80;;
17494;SDS011;8864;51.970;4.614;2023-06-24T05:46:04;5.07;;;2.80;;
17494;SDS011;8864;51.970;4.614;2023-06-24T05:48:33;7.00;;;3.08;;
17494;SDS011;8864;51.970;4.614;2023-06-24T05:51:00;6.22;;;3.33;;
17494;SDS011;8864;51.970;4.614;2023-06-24T05:53:27;7.63;;;3.50;;
17494;SDS011;8864;51.970;4.614;2023-06-24T05:55:54;6.60;;;2.90;;
17494;SDS011;8864;51.970;4.614;2023-06-24T05:58:20;8.73;;;3.00;;
17494;SDS011;8864;51.970;4.614;2023-06-24T06:00:47;11.40;;;3.35;;
17494;SDS011;8864;51.970;4.614;2023-06-24T06:03:14;4.78;;;3.05;;
17494;SDS011;8864;51.970;4.614;2023-06-24T06:05:43;4.35;;;2.58;;
17494;SDS011;8864;51.970;4.614;2023-06-24T06:08:10;6.25;;;2.95;;
17494;SDS011;8864;51.970;4.614;2023-06-24T06:10:37;7.43;;;2.80;;
17494;SDS011;8864;51.970;4.614;2023-06-24T06:13:04;8.55;;;2.95;;
17494;SDS011;8864;51.970;4.614;2023-06-24T06:15:31;8.65;;;2.90;;
17494;SDS011;8864;51.970;4.614;2023-06-24T06:17:58;4.78;;;2.60;;
17494;SDS011;8864;51.970;4.614;2023-06-24T06:20:25;6.70;;;2.88;;
17494;SDS011;8864;51.970;4.614;2023-06-24T06:22:53;5.53;;;2.95;;
17494;SDS011;8864;51.970;4.614;2023-06-24T06:25:20;6.47;;;2.53;;
17494;SDS011;8864;51.970;4.614;2023-06-24T06:27:47;5.90;;;2.70;;
17494;SDS011;8864;51.970;4.614;2023-06-24T06:30:14;8.43;;;3.33;;
17494;SDS011;8864;51.970;4.614;2023-06-24T06:32:41;7.72;;;3.28;;
17494;SDS011;8864;51.970;4.614;2023-06-24T06:35:08;4.57;;;3.10;;
17494;SDS011;8864;51.970;4.614;2023-06-24T06:37:35;6.65;;;3.50;;
17494;SDS011;8864;51.970;4.614;2023-06-24T06:40:05;6.82;;;3.55;;
17494;SDS011;8864;51.970;4.614;2023-06-24T06:42:33;5.95;;;3.08;;
17494;SDS011;8864;51.970;4.614;2023-06-24T06:45:02;8.68;;;3.72;;
17494;SDS011;8864;51.970;4.614;2023-06-24T06:47:29;6.15;;;2.92;;
17494;SDS011;8864;51.970;4.614;2023-06-24T06:49:56;7.07;;;3.90;;
17494;SDS011;8864;51.970;4.614;2023-06-24T06:52:23;5.70;;;3.28;;
17494;SDS011;8864;51.970;4.614;2023-06-24T06:54:50;8.07;;;3.53;;
17494;SDS011;8864;51.970;4.614;2023-06-24T06:57:18;10.43;;;3.38;;
17494;SDS011;8864;51.970;4.614;2023-06-24T06:59:45;11.63;;;3.20;;
17494;SDS011;8864;51.970;4.614;2023-06-24T07:02:12;6.68;;;3.25;;
17494;SDS011;8864;51.970;4.614;2023-06-24T07:04:39;11.88;;;3.55;;
17494;SDS011;8864;51.970;4.614;2023-06-24T07:07:06;4.82;;;2.97;;
17494;SDS011;8864;51.970;4.614;2023-06-24T07:09:33;6.13;;;2.80;;
17494;SDS011;8864;51.970;4.614;2023-06-24T07:12:00;7.30;;;3.40;;
17494;SDS011;8864;51.970;4.614;2023-06-24T07:14:29;8.20;;;3.17;;
17494;SDS011;8864;51.970;4.614;2023-06-24T07:16:55;8.45;;;3.38;;
17494;SDS011;8864;51.970;4.614;2023-06-24T07:19:22;12.50;;;3.30;;
17494;SDS011;8864;51.970;4.614;2023-06-24T07:21:50;8.75;;;3.65;;
17494;SDS011;8864;51.970;4.614;2023-06-24T07:24:17;11.55;;;3.63;;
17494;SDS011;8864;51.970;4.614;2023-06-24T07:26:44;5.70;;;3.28;;
17494;SDS011;8864;51.970;4.614;2023-06-24T07:29:11;7.35;;;3.35;;
17494;SDS011;8864;51.970;4.614;2023-06-24T07:31:39;8.65;;;3.35;;
17494;SDS011;8864;51.970;4.614;2023-06-24T07:34:06;6.65;;;3.33;;
17494;SDS011;8864;51.970;4.614;2023-06-24T07:36:33;11.48;;;3.22;;
17494;SDS011;8864;51.970;4.614;2023-06-24T07:39:00;5.78;;;3.03;;
17494;SDS011;8864;51.970;4.614;2023-06-24T07:41:27;10.85;;;3.55;;
17494;SDS011;8864;51.970;4.614;2023-06-24T07:43:54;8.00;;;3.50;;
17494;SDS011;8864;51.970;4.614;2023-06-24T07:46:21;8.68;;;3.30;;
17494;SDS011;8864;51.970;4.614;2023-06-24T07:48:49;7.55;;;3.25;;
17494;SDS011;8864;51.970;4.614;2023-06-24T07:51:16;5.32;;;3.40;;
17494;SDS011;8864;51.970;4.614;2023-06-24T07:53:43;6.47;;;3.40;;
17494;SDS011;8864;51.970;4.614;2023-06-24T07:56:10;5.43;;;2.65;;
17494;SDS011;8864;51.970;4.614;2023-06-24T07:58:37;7.60;;;3.20;;
17494;SDS011;8864;51.970;4.614;2023-06-24T08:01:04;10.63;;;3.58;;
17494;SDS011;8864;51.970;4.614;2023-06-24T08:03:31;6.50;;;3.17;;
17494;SDS011;8864;51.970;4.614;2023-06-24T08:05:59;6.00;;;3.33;;
17494;SDS011;8864;51.970;4.614;2023-06-24T08:08:26;6.32;;;3.72;;
17494;SDS011;8864;51.970;4.614;2023-06-24T08:10:53;6.25;;;3.80;;
17494;SDS011;8864;51.970;4.614;2023-06-24T08:13:20;8.68;;;4.03;;
17494;SDS011;8864;51.970;4.614;2023-06-24T08:15:47;22.75;;;7.05;;
17494;SDS011;8864;51.970;4.614;2023-06-24T08:18:14;18.42;;;4.95;;
17494;SDS011;8864;51.970;4.614;2023-06-24T08:20:41;8.98;;;4.32;;
17494;SDS011;8864;51.970;4.614;2023-06-24T08:23:10;7.85;;;3.85;;
17494;SDS011;8864;51.970;4.614;2023-06-24T08:25:37;9.13;;;4.18;;
17494;SDS011;8864;51.970;4.614;2023-06-24T08:28:03;7.65;;;3.42;;
17494;SDS011;8864;51.970;4.614;2023-06-24T08:30:30;7.57;;;3.40;;
17494;SDS011;8864;51.970;4.614;2023-06-24T08:32:58;9.40;;;3.58;;
17494;SDS011;8864;51.970;4.614;2023-06-24T08:35:24;8.57;;;3.22;;
17494;SDS011;8864;51.970;4.614;2023-06-24T08:37:51;6.82;;;3.42;;
17494;SDS011;8864;51.970;4.614;2023-06-24T08:40:20;10.25;;;3.90;;
17494;SDS011;8864;51.970;4.614;2023-06-24T08:42:47;7.75;;;3.45;;
17494;SDS011;8864;51.970;4.614;2023-06-24T08:45:14;5.63;;;3.17;;
17494;SDS011;8864;51.970;4.614;2023-06-24T08:47:41;4.78;;;2.65;;
17494;SDS011;8864;51.970;4.614;2023-06-24T08:50:11;5.40;;;3.25;;
17494;SDS011;8864;51.970;4.614;2023-06-24T08:52:40;7.35;;;3.42;;
17494;SDS011;8864;51.970;4.614;2023-06-24T08:55:10;7.55;;;3.42;;
17494;SDS011;8864;51.970;4.614;2023-06-24T08:57:41;7.60;;;3.30;;
17494;SDS011;8864;51.970;4.614;2023-06-24T09:00:08;7.25;;;3.33;;
17494;SDS011;8864;51.970;4.614;2023-06-24T09:02:36;6.35;;;3.50;;
17494;SDS011;8864;51.970;4.614;2023-06-24T09:05:04;7.63;;;3.00;;
17494;SDS011;8864;51.970;4.614;2023-06-24T09:07:31;6.55;;;3.38;;
17494;SDS011;8864;51.970;4.614;2023-06-24T09:09:57;7.20;;;3.38;;
17494;SDS011;8864;51.970;4.614;2023-06-24T09:12:25;5.40;;;3.25;;
17494;SDS011;8864;51.970;4.614;2023-06-24T09:14:54;7.05;;;3.20;;
17494;SDS011;8864;51.970;4.614;2023-06-24T09:17:20;4.90;;;3.40;;
17494;SDS011;8864;51.970;4.614;2023-06-24T09:19:48;8.27;;;3.83;;
17494;SDS011;8864;51.970;4.614;2023-06-24T09:22:15;7.47;;;3.35;;
17494;SDS011;8864;51.970;4.614;2023-06-24T09:24:44;7.47;;;3.10;;
17494;SDS011;8864;51.970;4.614;2023-06-24T09:27:12;5.10;;;3.00;;
17494;SDS011;8864;51.970;4.614;2023-06-24T09:29:40;6.35;;;3.75;;
17494;SDS011;8864;51.970;4.614;2023-06-24T09:32:10;7.10;;;3.38;;
17494;SDS011;8864;51.970;4.614;2023-06-24T09:34:37;8.40;;;4.05;;
17494;SDS011;8864;51.970;4.614;2023-06-24T09:37:05;6.70;;;3.58;;
17494;SDS011;8864;51.970;4.614;2023-06-24T09:39:35;5.30;;;3.10;;
17494;SDS011;8864;51.970;4.614;2023-06-24T09:42:03;5.75;;;3.22;;
17494;SDS011;8864;51.970;4.614;2023-06-24T09:44:32;11.25;;;3.08;;
17494;SDS011;8864;51.970;4.614;2023-06-24T09:46:59;5.57;;;3.17;;
17494;SDS011;8864;51.970;4.614;2023-06-24T09:49:28;6.38;;;3.15;;
17494;SDS011;8864;51.970;4.614;2023-06-24T09:51:55;8.57;;;2.97;;
17494;SDS011;8864;51.970;4.614;2023-06-24T09:54:24;6.18;;;3.10;;
17494;SDS011;8864;51.970;4.614;2023-06-24T09:56:53;5.57;;;2.67;;
17494;SDS011;8864;51.970;4.614;2023-06-24T09:59:23;7.90;;;2.70;;
17494;SDS011;8864;51.970;4.614;2023-06-24T10:01:52;4.30;;;2.67;;
17494;SDS011;8864;51.970;4.614;2023-06-24T10:04:20;4.38;;;2.35;;
17494;SDS011;8864;51.970;4.614;2023-06-24T10:06:49;4.57;;;2.80;;
17494;SDS011;8864;51.970;4.614;2023-06-24T10:09:16;5.78;;;2.53;;
17494;SDS011;8864;51.970;4.614;2023-06-24T10:11:44;4.85;;;2.53;;
17494;SDS011;8864;51.970;4.614;2023-06-24T10:14:12;6.38;;;2.88;;
17494;SDS011;8864;51.970;4.614;2023-06-24T10:16:40;5.78;;;2.70;;
17494;SDS011;8864;51.970;4.614;2023-06-24T10:19:08;4.25;;;2.40;;
17494;SDS011;8864;51.970;4.614;2023-06-24T10:21:44;3.33;;;2.30;;
17494;SDS011;8864;51.970;4.614;2023-06-24T10:24:14;5.30;;;2.28;;
17494;SDS011;8864;51.970;4.614;2023-06-24T10:27:01;5.05;;;2.38;;
17494;SDS011;8864;51.970;4.614;2023-06-24T10:29:32;4.78;;;2.80;;
17494;SDS011;8864;51.970;4.614;2023-06-24T10:32:01;3.67;;;2.50;;
17494;SDS011;8864;51.970;4.614;2023-06-24T10:34:33;4.88;;;2.85;;
17494;SDS011;8864;51.970;4.614;2023-06-24T10:37:07;4.32;;;2.28;;
17494;SDS011;8864;51.970;4.614;2023-06-24T10:39:40;2.95;;;2.13;;
17494;SDS011;8864;51.970;4.614;2023-06-24T10:42:28;3.83;;;2.60;;
17494;SDS011;8864;51.970;4.614;2023-06-24T10:44:57;5.40;;;2.22;;
17494;SDS011;8864;51.970;4.614;2023-06-24T10:47:25;3.15;;;2.10;;
17494;SDS011;8864;51.970;4.614;2023-06-24T10:49:53;3.60;;;2.45;;
17494;SDS011;8864;51.970;4.614;2023-06-24T10:52:20;3.30;;;2.40;;
17494;SDS011;8864;51.970;4.614;2023-06-24T10:54:50;4.18;;;2.40;;
17494;SDS011;8864;51.970;4.614;2023-06-24T10:57:21;3.65;;;2.25;;
17494;SDS011;8864;51.970;4.614;2023-06-24T10:59:49;3.40;;;2.22;;
17494;SDS011;8864;51.970;4.614;2023-06-24T11:02:17;2.60;;;2.28;;
17494;SDS011;8864;51.970;4.614;2023-06-24T11:04:45;3.75;;;2.38;;
17494;SDS011;8864;51.970;4.614;2023-06-24T11:07:14;3.63;;;2.40;;
17494;SDS011;8864;51.970;4.614;2023-06-24T11:09:47;3.90;;;2.40;;
17494;SDS011;8864;51.970;4.614;2023-06-24T11:12:16;3.88;;;2.40;;
17494;SDS011;8864;51.970;4.614;2023-06-24T11:14:43;2.67;;;1.88;;
17494;SDS011;8864;51.970;4.614;2023-06-24T11:17:10;2.35;;;1.80;;
17494;SDS011;8864;51.970;4.614;2023-06-24T11:19:38;3.38;;;2.33;;
17494;SDS011;8864;51.970;4.614;2023-06-24T11:22:06;3.10;;;2.17;;
17494;SDS011;8864;51.970;4.614;2023-06-24T11:24:34;3.55;;;2.25;;
17494;SDS011;8864;51.970;4.614;2023-06-24T11:27:03;2.25;;;1.90;;
17494;SDS011;8864;51.970;4.614;2023-06-24T11:29:31;3.53;;;2.30;;
17494;SDS011;8864;51.970;4.614;2023-06-24T11:31:59;3.00;;;2.13;;
17494;SDS011;8864;51.970;4.614;2023-06-24T11:34:26;2.70;;;1.95;;
17494;SDS011;8864;51.970;4.614;2023-06-24T11:36:53;3.85;;;2.28;;
17494;SDS011;8864;51.970;4.614;2023-06-24T11:39:20;3.78;;;2.08;;
17494;SDS011;8864;51.970;4.614;2023-06-24T11:41:48;3.20;;;1.95;;
17494;SDS011;8864;51.970;4.614;2023-06-24T11:44:18;3.47;;;2.10;;
17494;SDS011;8864;51.970;4.614;2023-06-24T11:46:46;3.33;;;2.15;;
17494;SDS011;8864;51.970;4.614;2023-06-24T11:49:13;2.70;;;2.00;;
17494;SDS011;8864;51.970;4.614;2023-06-24T11:51:50;2.90;;;2.00;;
17494;SDS011;8864;51.970;4.614;2023-06-24T11:54:18;2.22;;;1.77;;
17494;SDS011;8864;51.970;4.614;2023-06-24T11:56:49;3.28;;;1.88;;
17494;SDS011;8864;51.970;4.614;2023-06-24T11:59:19;2.42;;;1.58;;
17494;SDS011;8864;51.970;4.614;2023-06-24T12:01:52;2.83;;;1.90;;
17494;SDS011;8864;51.970;4.614;2023-06-24T12:04:20;2.97;;;2.10;;
17494;SDS011;8864;51.970;4.614;2023-06-24T12:06:48;2.53;;;1.92;;
17494;SDS011;8864;51.970;4.614;2023-06-24T12:09:15;2.75;;;1.63;;
17494;SDS011;8864;51.970;4.614;2023-06-24T12:11:43;2.90;;;1.98;;
17494;SDS011;8864;51.970;4.614;2023-06-24T12:14:10;2.88;;;1.85;;
17494;SDS011;8864;51.970;4.614;2023-06-24T12:16:39;2.70;;;1.80;;
17494;SDS011;8864;51.970;4.614;2023-06-24T12:19:06;2.60;;;2.00;;
17494;SDS011;8864;51.970;4.614;2023-06-24T12:21:33;2.28;;;1.80;;
17494;SDS011;8864;51.970;4.614;2023-06-24T12:24:00;2.47;;;1.88;;
17494;SDS011;8864;51.970;4.614;2023-06-24T12:26:27;2.10;;;1.70;;
17494;SDS011;8864;51.970;4.614;2023-06-24T12:28:54;2.33;;;1.83;;
17494;SDS011;8864;51.970;4.614;2023-06-24T12:31:22;2.30;;;1.70;;
17494;SDS011;8864;51.970;4.614;2023-06-24T12:33:51;2.65;;;1.95;;
17494;SDS011;8864;51.970;4.614;2023-06-24T12:36:18;2.08;;;1.77;;
17494;SDS011;8864;51.970;4.614;2023-06-24T12:38:45;2.22;;;1.67;;
17494;SDS011;8864;51.970;4.614;2023-06-24T12:41:12;3.28;;;1.73;;
17494;SDS011;8864;51.970;4.614;2023-06-24T12:43:39;2.22;;;1.73;;
17494;SDS011;8864;51.970;4.614;2023-06-24T12:46:06;2.65;;;1.80;;
17494;SDS011;8864;51.970;4.614;2023-06-24T12:48:33;2.05;;;1.60;;
17494;SDS011;8864;51.970;4.614;2023-06-24T12:51:01;2.33;;;1.73;;
17494;SDS011;8864;51.970;4.614;2023-06-24T12:53:29;2.95;;;1.83;;
17494;SDS011;8864;51.970;4.614;2023-06-24T12:55:55;2.65;;;1.70;;
17494;SDS011;8864;51.970;4.614;2023-06-24T12:58:23;2.85;;;2.00;;
17494;SDS011;8864;51.970;4.614;2023-06-24T13:00:50;1.80;;;1.45;;
17494;SDS011;8864;51.970;4.614;2023-06-24T13:03:17;2.60;;;1.80;;
17494;SDS011;8864;51.970;4.614;2023-06-24T13:05:44;2.33;;;1.73;;
17494;SDS011;8864;51.970;4.614;2023-06-24T13:08:13;2.42;;;1.67;;
17494;SDS011;8864;51.970;4.614;2023-06-24T13:10:40;1.95;;;1.67;;
17494;SDS011;8864;51.970;4.614;2023-06-24T13:13:07;2.35;;;1.50;;
17494;SDS011;8864;51.970;4.614;2023-06-24T13:15:34;3.45;;;1.85;;
17494;SDS011;8864;51.970;4.614;2023-06-24T13:18:01;2.28;;;1.58;;
17494;SDS011;8864;51.970;4.614;2023-06-24T13:20:28;2.40;;;1.45;;
17494;SDS011;8864;51.970;4.614;2023-06-24T13:22:55;2.33;;;1.60;;
17494;SDS011;8864;51.970;4.614;2023-06-24T13:25:23;2.33;;;1.63;;
17494;SDS011;8864;51.970;4.614;2023-06-24T13:27:50;2.20;;;1.67;;
17494;SDS011;8864;51.970;4.614;2023-06-24T13:30:18;2.40;;;1.67;;
17494;SDS011;8864;51.970;4.614;2023-06-24T13:32:45;2.10;;;1.60;;
17494;SDS011;8864;51.970;4.614;2023-06-24T13:35:11;2.55;;;1.83;;
17494;SDS011;8864;51.970;4.614;2023-06-24T13:37:39;1.85;;;1.55;;
17494;SDS011;8864;51.970;4.614;2023-06-24T13:40:07;2.63;;;1.50;;
17494;SDS011;8864;51.970;4.614;2023-06-24T13:42:36;2.80;;;1.77;;
17494;SDS011;8864;51.970;4.614;2023-06-24T13:45:03;1.90;;;1.60;;
17494;SDS011;8864;51.970;4.614;2023-06-24T13:47:31;1.80;;;1.58;;
17494;SDS011;8864;51.970;4.614;2023-06-24T13:49:58;2.15;;;1.60;;
17494;SDS011;8864;51.970;4.614;2023-06-24T13:52:25;2.55;;;1.50;;
17494;SDS011;8864;51.970;4.614;2023-06-24T13:54:52;2.78;;;1.80;;
17494;SDS011;8864;51.970;4.614;2023-06-24T13:57:19;2.47;;;1.90;;
17494;SDS011;8864;51.970;4.614;2023-06-24T13:59:48;1.63;;;1.30;;
17494;SDS011;8864;51.970;4.614;2023-06-24T14:02:15;3.55;;;1.80;;
17494;SDS011;8864;51.970;4.614;2023-06-24T14:04:41;2.10;;;1.63;;
17494;SDS011;8864;51.970;4.614;2023-06-24T14:07:08;1.85;;;1.45;;
17494;SDS011;8864;51.970;4.614;2023-06-24T14:09:36;3.50;;;1.58;;
17494;SDS011;8864;51.970;4.614;2023-06-24T14:12:05;2.28;;;1.65;;
17494;SDS011;8864;51.970;4.614;2023-06-24T14:14:34;3.15;;;1.67;;
17494;SDS011;8864;51.970;4.614;2023-06-24T14:17:05;4.60;;;2.05;;
17494;SDS011;8864;51.970;4.614;2023-06-24T14:19:35;3.28;;;1.80;;
17494;SDS011;8864;51.970;4.614;2023-06-24T14:22:02;6.72;;;2.15;;
17494;SDS011;8864;51.970;4.614;2023-06-24T14:24:29;5.88;;;2.13;;
17494;SDS011;8864;51.970;4.614;2023-06-24T14:26:56;5.60;;;1.90;;
17494;SDS011;8864;51.970;4.614;2023-06-24T14:29:23;6.68;;;2.08;;
17494;SDS011;8864;51.970;4.614;2023-06-24T14:31:50;5.60;;;2.10;;
17494;SDS011;8864;51.970;4.614;2023-06-24T14:34:18;8.30;;;2.30;;
17494;SDS011;8864;51.970;4.614;2023-06-24T14:36:45;8.50;;;2.35;;
17494;SDS011;8864;51.970;4.614;2023-06-24T14:39:14;10.70;;;2.33;;
17494;SDS011;8864;51.970;4.614;2023-06-24T14:41:42;5.32;;;2.60;;
17494;SDS011;8864;51.970;4.614;2023-06-24T14:44:09;4.40;;;2.45;;
17494;SDS011;8864;51.970;4.614;2023-06-24T14:46:36;6.55;;;2.50;;
17494;SDS011;8864;51.970;4.614;2023-06-24T14:49:03;6.07;;;2.60;;
17494;SDS011;8864;51.970;4.614;2023-06-24T14:51:31;3.90;;;2.70;;
17494;SDS011;8864;51.970;4.614;2023-06-24T14:53:58;4.35;;;2.58;;
17494;SDS011;8864;51.970;4.614;2023-06-24T14:56:26;4.05;;;2.75;;
17494;SDS011;8864;51.970;4.614;2023-06-24T14:58:53;5.55;;;2.83;;
17494;SDS011;8864;51.970;4.614;2023-06-24T15:01:20;3.35;;;2.47;;
17494;SDS011;8864;51.970;4.614;2023-06-24T15:03:47;7.20;;;2.70;;
17494;SDS011;8864;51.970;4.614;2023-06-24T15:06:13;7.68;;;2.75;;